sensor_id;sensor_type;location;lat;lon;timestamp;P1;durP1;ratioP1;P2;durP2;ratioP2
9254;SDS011;4663;49.120;9.730;2023-03-17T00:00:18;17.40;;;16.20;;
9254;SDS011;4663;49.120;9.730;2023-03-17T00:02:45;16.13;;;14.93;;
9254;SDS011;4663;49.120;9.730;2023-03-17T00:05:25;16.53;;;15.43;;
9254;SDS011;4663;49.120;9.730;2023-03-17T00:07:54;17.03;;;15.93;;
9254;SDS011;4663;49.120;9.730;2023-03-17T00:10:26;17.10;;;15.97;;
9254;SDS011;4663;49.120;9.730;2023-03-17T00:12:52;17.03;;;15.83;;
9254;SDS011;4663;49.120;9.730;2023-03-17T00:15:19;16.40;;;15.30;;
9254;SDS011;4663;49.120;9.730;2023-03-17T00:17:46;17.17;;;16.03;;
9254;SDS011;4663;49.120;9.730;2023-03-17T00:20:15;17.03;;;15.73;;
9254;SDS011;4663;49.120;9.730;2023-03-17T00:22:46;16.57;;;15.37;;
9254;SDS011;4663;49.120;9.730;2023-03-17T00:25:20;16.87;;;15.77;;
9254;SDS011;4663;49.120;9.730;2023-03-17T00:27:57;16.67;;;15.47;;
9254;SDS011;4663;49.120;9.730;2023-03-17T00:30:23;17.20;;;15.90;;
9254;SDS011;4663;49.120;9.730;2023-03-17T00:32:51;17.10;;;15.90;;
9254;SDS011;4663;49.120;9.730;2023-03-17T00:37:50;16.00;;;14.90;;
9254;SDS011;4663;49.120;9.730;2023-03-17T00:40:26;17.17;;;15.97;;
9254;SDS011;4663;49.120;9.730;2023-03-17T00:42:55;16.53;;;15.20;;
9254;SDS011;4663;49.120;9.730;2023-03-17T00:45:21;16.30;;;15.20;;
9254;SDS011;4663;49.120;9.730;2023-03-17T00:47:48;17.67;;;16.40;;
9254;SDS011;4663;49.120;9.730;2023-03-17T00:50:18;15.23;;;14.23;;
9254;SDS011;4663;49.120;9.730;2023-03-17T00:52:48;15.30;;;14.17;;
9254;SDS011;4663;49.120;9.730;2023-03-17T00:55:17;15.70;;;14.60;;
9254;SDS011;4663;49.120;9.730;2023-03-17T00:57:43;16.43;;;15.33;;
9254;SDS011;4663;49.120;9.730;2023-03-17T01:00:32;16.27;;;15.17;;
9254;SDS011;4663;49.120;9.730;2023-03-17T01:02:57;15.60;;;14.60;;
9254;SDS011;4663;49.120;9.730;2023-03-17T01:05:23;17.87;;;16.77;;
9254;SDS011;4663;49.120;9.730;2023-03-17T01:07:52;16.40;;;15.27;;
9254;SDS011;4663;49.120;9.730;2023-03-17T01:10:23;16.17;;;15.17;;
9254;SDS011;4663;49.120;9.730;2023-03-17T01:12:51;17.30;;;16.20;;
9254;SDS011;4663;49.120;9.730;2023-03-17T01:15:18;16.93;;;15.83;;
9254;SDS011;4663;49.120;9.730;2023-03-17T01:17:45;16.77;;;15.57;;
9254;SDS011;4663;49.120;9.730;2023-03-17T01:20:15;17.20;;;16.10;;
9254;SDS011;4663;49.120;9.730;2023-03-17T01:22:43;19.47;;;18.17;;
9254;SDS011;4663;49.120;9.730;2023-03-17T01:25:09;19.50;;;17.97;;
9254;SDS011;4663;49.120;9.730;2023-03-17T01:27:36;17.57;;;16.43;;
9254;SDS011;4663;49.120;9.730;2023-03-17T01:30:03;18.90;;;17.60;;
9254;SDS011;4663;49.120;9.730;2023-03-17T01:32:29;18.57;;;17.17;;
9254;SDS011;4663;49.120;9.730;2023-03-17T01:34:54;19.83;;;18.47;;
9254;SDS011;4663;49.120;9.730;2023-03-17T01:37:20;18.83;;;17.43;;
9254;SDS011;4663;49.120;9.730;2023-03-17T01:39:46;16.27;;;15.07;;
9254;SDS011;4663;49.120;9.730;2023-03-17T01:42:11;15.83;;;14.73;;
9254;SDS011;4663;49.120;9.730;2023-03-17T01:44:55;17.20;;;16.00;;
9254;SDS011;4663;49.120;9.730;2023-03-17T01:47:26;17.83;;;16.57;;
9254;SDS011;4663;49.120;9.730;2023-03-17T01:49:55;16.97;;;15.67;;
9254;SDS011;4663;49.120;9.730;2023-03-17T01:52:24;17.07;;;15.87;;
9254;SDS011;4663;49.120;9.730;2023-03-17T02:00:06;18.00;;;16.73;;
9254;SDS011;4663;49.120;9.730;2023-03-17T02:02:47;16.50;;;15.40;;
9254;SDS011;4663;49.120;9.730;2023-03-17T02:05:25;16.37;;;15.20;;
9254;SDS011;4663;49.120;9.730;2023-03-17T02:07:52;17.23;;;15.93;;
9254;SDS011;4663;49.120;9.730;2023-03-17T02:10:19;17.27;;;15.97;;
9254;SDS011;4663;49.120;9.730;2023-03-17T02:12:48;16.97;;;15.80;;
9254;SDS011;4663;49.120;9.730;2023-03-17T02:15:17;15.87;;;14.80;;
9254;SDS011;4663;49.120;9.730;2023-03-17T02:17:43;16.67;;;15.07;;
9254;SDS011;4663;49.120;9.730;2023-03-17T02:22:57;16.20;;;15.13;;
9254;SDS011;4663;49.120;9.730;2023-03-17T02:25:25;16.63;;;15.33;;
9254;SDS011;4663;49.120;9.730;2023-03-17T02:30:41;15.87;;;14.57;;
9254;SDS011;4663;49.120;9.730;2023-03-17T02:33:07;16.43;;;15.13;;
9254;SDS011;4663;49.120;9.730;2023-03-17T02:35:36;16.27;;;15.20;;
9254;SDS011;4663;49.120;9.730;2023-03-17T02:38:01;16.03;;;15.03;;
9254;SDS011;4663;49.120;9.730;2023-03-17T02:40:27;15.93;;;14.73;;
9254;SDS011;4663;49.120;9.730;2023-03-17T02:42:52;17.00;;;15.93;;
9254;SDS011;4663;49.120;9.730;2023-03-17T02:45:18;16.40;;;15.30;;
9254;SDS011;4663;49.120;9.730;2023-03-17T02:47:44;16.07;;;15.07;;
9254;SDS011;4663;49.120;9.730;2023-03-17T02:50:18;15.83;;;14.83;;
9254;SDS011;4663;49.120;9.730;2023-03-17T02:52:46;15.03;;;14.07;;
9254;SDS011;4663;49.120;9.730;2023-03-17T02:55:12;16.23;;;15.13;;
9254;SDS011;4663;49.120;9.730;2023-03-17T02:57:38;15.43;;;14.43;;
9254;SDS011;4663;49.120;9.730;2023-03-17T03:00:03;15.13;;;14.23;;
9254;SDS011;4663;49.120;9.730;2023-03-17T03:02:29;16.80;;;15.47;;
9254;SDS011;4663;49.120;9.730;2023-03-17T03:04:55;15.80;;;14.40;;
9254;SDS011;4663;49.120;9.730;2023-03-17T03:07:20;17.33;;;16.23;;
9254;SDS011;4663;49.120;9.730;2023-03-17T03:09:46;16.80;;;15.73;;
9254;SDS011;4663;49.120;9.730;2023-03-17T03:12:12;16.10;;;14.90;;
9254;SDS011;4663;49.120;9.730;2023-03-17T03:14:37;15.70;;;14.70;;
9254;SDS011;4663;49.120;9.730;2023-03-17T03:17:03;16.57;;;15.33;;
9254;SDS011;4663;49.120;9.730;2023-03-17T03:19:28;15.00;;;14.00;;
9254;SDS011;4663;49.120;9.730;2023-03-17T03:21:54;16.77;;;15.70;;
9254;SDS011;4663;49.120;9.730;2023-03-17T03:24:19;16.17;;;15.07;;
9254;SDS011;4663;49.120;9.730;2023-03-17T03:26:45;15.87;;;14.87;;
9254;SDS011;4663;49.120;9.730;2023-03-17T03:29:10;16.57;;;15.37;;
9254;SDS011;4663;49.120;9.730;2023-03-17T03:31:36;17.17;;;16.07;;
9254;SDS011;4663;49.120;9.730;2023-03-17T03:34:01;15.40;;;14.20;;
9254;SDS011;4663;49.120;9.730;2023-03-17T03:36:27;16.77;;;15.67;;
9254;SDS011;4663;49.120;9.730;2023-03-17T03:38:52;18.03;;;16.83;;
9254;SDS011;4663;49.120;9.730;2023-03-17T03:41:18;16.23;;;15.13;;
9254;SDS011;4663;49.120;9.730;2023-03-17T03:43:43;15.03;;;14.13;;
9254;SDS011;4663;49.120;9.730;2023-03-17T03:46:09;17.30;;;15.77;;
9254;SDS011;4663;49.120;9.730;2023-03-17T03:48:34;16.90;;;15.70;;
9254;SDS011;4663;49.120;9.730;2023-03-17T03:51:00;15.10;;;14.10;;
9254;SDS011;4663;49.120;9.730;2023-03-17T03:53:26;15.80;;;14.80;;
9254;SDS011;4663;49.120;9.730;2023-03-17T03:55:52;15.33;;;14.33;;
9254;SDS011;4663;49.120;9.730;2023-03-17T03:58:19;15.47;;;14.37;;
9254;SDS011;4663;49.120;9.730;2023-03-17T04:00:44;16.77;;;15.63;;
9254;SDS011;4663;49.120;9.730;2023-03-17T04:03:11;16.07;;;14.97;;
9254;SDS011;4663;49.120;9.730;2023-03-17T04:05:37;15.30;;;14.20;;
9254;SDS011;4663;49.120;9.730;2023-03-17T04:08:03;16.73;;;15.63;;
9254;SDS011;4663;49.120;9.730;2023-03-17T04:10:29;15.60;;;14.53;;
9254;SDS011;4663;49.120;9.730;2023-03-17T04:12:55;15.87;;;14.83;;
9254;SDS011;4663;49.120;9.730;2023-03-17T04:15:22;17.30;;;16.20;;
9254;SDS011;4663;49.120;9.730;2023-03-17T04:17:48;16.57;;;15.27;;
9254;SDS011;4663;49.120;9.730;2023-03-17T04:20:14;16.97;;;15.80;;
9254;SDS011;4663;49.120;9.730;2023-03-17T04:22:41;16.70;;;15.60;;
9254;SDS011;4663;49.120;9.730;2023-03-17T04:25:08;17.13;;;15.73;;
9254;SDS011;4663;49.120;9.730;2023-03-17T04:27:35;18.60;;;17.37;;
9254;SDS011;4663;49.120;9.730;2023-03-17T04:30:00;20.17;;;18.83;;
9254;SDS011;4663;49.120;9.730;2023-03-17T04:32:26;22.53;;;21.20;;
9254;SDS011;4663;49.120;9.730;2023-03-17T04:34:51;25.20;;;23.67;;
9254;SDS011;4663;49.120;9.730;2023-03-17T04:37:17;30.23;;;28.40;;
9254;SDS011;4663;49.120;9.730;2023-03-17T04:39:43;31.93;;;30.10;;
9254;SDS011;4663;49.120;9.730;2023-03-17T04:42:08;32.80;;;30.97;;
9254;SDS011;4663;49.120;9.730;2023-03-17T04:44:34;38.97;;;36.60;;
9254;SDS011;4663;49.120;9.730;2023-03-17T04:47:00;38.00;;;35.97;;
9254;SDS011;4663;49.120;9.730;2023-03-17T04:49:26;39.57;;;37.00;;
9254;SDS011;4663;49.120;9.730;2023-03-17T04:51:52;38.53;;;36.47;;
9254;SDS011;4663;49.120;9.730;2023-03-17T04:54:18;42.97;;;40.57;;
9254;SDS011;4663;49.120;9.730;2023-03-17T04:56:43;43.57;;;41.27;;
9254;SDS011;4663;49.120;9.730;2023-03-17T04:59:09;41.63;;;39.30;;
9254;SDS011;4663;49.120;9.730;2023-03-17T05:01:35;44.37;;;41.97;;
9254;SDS011;4663;49.120;9.730;2023-03-17T05:04:00;44.30;;;41.63;;
9254;SDS011;4663;49.120;9.730;2023-03-17T05:06:26;48.50;;;45.87;;
9254;SDS011;4663;49.120;9.730;2023-03-17T05:08:51;49.97;;;47.20;;
9254;SDS011;4663;49.120;9.730;2023-03-17T05:11:17;45.37;;;42.90;;
9254;SDS011;4663;49.120;9.730;2023-03-17T05:13:43;48.07;;;45.47;;
9254;SDS011;4663;49.120;9.730;2023-03-17T05:16:09;48.13;;;45.53;;
9254;SDS011;4663;49.120;9.730;2023-03-17T05:18:35;46.87;;;44.23;;
9254;SDS011;4663;49.120;9.730;2023-03-17T05:21:01;47.87;;;45.17;;
9254;SDS011;4663;49.120;9.730;2023-03-17T05:23:26;47.60;;;44.90;;
9254;SDS011;4663;49.120;9.730;2023-03-17T05:25:53;47.77;;;45.17;;
9254;SDS011;4663;49.120;9.730;2023-03-17T05:28:19;42.97;;;40.50;;
9254;SDS011;4663;49.120;9.730;2023-03-17T05:30:45;48.80;;;46.10;;
9254;SDS011;4663;49.120;9.730;2023-03-17T05:33:12;45.50;;;43.00;;
9254;SDS011;4663;49.120;9.730;2023-03-17T05:35:38;47.20;;;44.60;;
9254;SDS011;4663;49.120;9.730;2023-03-17T05:38:04;45.77;;;43.27;;
9254;SDS011;4663;49.120;9.730;2023-03-17T05:40:30;46.10;;;43.60;;
9254;SDS011;4663;49.120;9.730;2023-03-17T05:42:56;43.97;;;41.60;;
9254;SDS011;4663;49.120;9.730;2023-03-17T05:45:21;48.97;;;45.97;;
9254;SDS011;4663;49.120;9.730;2023-03-17T05:47:47;45.67;;;43.07;;
9254;SDS011;4663;49.120;9.730;2023-03-17T05:50:12;44.73;;;42.33;;
9254;SDS011;4663;49.120;9.730;2023-03-17T05:52:38;44.50;;;42.10;;
9254;SDS011;4663;49.120;9.730;2023-03-17T05:55:04;43.63;;;41.23;;
9254;SDS011;4663;49.120;9.730;2023-03-17T05:57:30;44.23;;;41.63;;
9254;SDS011;4663;49.120;9.730;2023-03-17T05:59:55;48.93;;;46.07;;
9254;SDS011;4663;49.120;9.730;2023-03-17T06:02:21;47.73;;;45.20;;
9254;SDS011;4663;49.120;9.730;2023-03-17T06:04:47;50.43;;;47.67;;
9254;SDS011;4663;49.120;9.730;2023-03-17T06:07:12;46.90;;;44.30;;
9254;SDS011;4663;49.120;9.730;2023-03-17T06:09:37;46.13;;;43.57;;
9254;SDS011;4663;49.120;9.730;2023-03-17T06:12:04;43.93;;;41.50;;
9254;SDS011;4663;49.120;9.730;2023-03-17T06:14:30;44.03;;;41.63;;
9254;SDS011;4663;49.120;9.730;2023-03-17T06:16:56;46.33;;;43.83;;
9254;SDS011;4663;49.120;9.730;2023-03-17T06:19:22;43.13;;;40.83;;
9254;SDS011;4663;49.120;9.730;2023-03-17T06:21:47;39.80;;;37.57;;
9254;SDS011;4663;49.120;9.730;2023-03-17T06:24:12;35.23;;;33.23;;
9254;SDS011;4663;49.120;9.730;2023-03-17T06:26:38;32.13;;;30.10;;
9254;SDS011;4663;49.120;9.730;2023-03-17T06:29:03;27.50;;;25.87;;
9254;SDS011;4663;49.120;9.730;2023-03-17T06:31:33;24.67;;;22.97;;
9254;SDS011;4663;49.120;9.730;2023-03-17T06:33:58;21.03;;;19.53;;
9254;SDS011;4663;49.120;9.730;2023-03-17T06:36:24;19.57;;;17.97;;
9254;SDS011;4663;49.120;9.730;2023-03-17T06:38:49;18.70;;;17.40;;
9254;SDS011;4663;49.120;9.730;2023-03-17T06:41:15;18.67;;;17.37;;
9254;SDS011;4663;49.120;9.730;2023-03-17T06:43:41;20.37;;;18.97;;
9254;SDS011;4663;49.120;9.730;2023-03-17T06:46:06;19.70;;;18.40;;
9254;SDS011;4663;49.120;9.730;2023-03-17T06:48:32;22.03;;;20.40;;
9254;SDS011;4663;49.120;9.730;2023-03-17T06:50:58;22.70;;;21.13;;
9254;SDS011;4663;49.120;9.730;2023-03-17T06:53:24;25.97;;;24.17;;
9254;SDS011;4663;49.120;9.730;2023-03-17T06:55:49;33.93;;;31.87;;
9254;SDS011;4663;49.120;9.730;2023-03-17T06:58:15;41.17;;;38.90;;
9254;SDS011;4663;49.120;9.730;2023-03-17T07:00:41;42.43;;;40.00;;
9254;SDS011;4663;49.120;9.730;2023-03-17T07:03:06;43.00;;;39.63;;
9254;SDS011;4663;49.120;9.730;2023-03-17T07:05:33;40.57;;;38.20;;
9254;SDS011;4663;49.120;9.730;2023-03-17T07:07:59;38.00;;;35.73;;
9254;SDS011;4663;49.120;9.730;2023-03-17T07:10:24;35.67;;;33.40;;
9254;SDS011;4663;49.120;9.730;2023-03-17T07:12:50;35.10;;;32.70;;
9254;SDS011;4663;49.120;9.730;2023-03-17T07:15:15;29.87;;;27.60;;
9254;SDS011;4663;49.120;9.730;2023-03-17T07:17:42;24.63;;;22.60;;
9254;SDS011;4663;49.120;9.730;2023-03-17T07:20:10;22.97;;;21.37;;
9254;SDS011;4663;49.120;9.730;2023-03-17T07:22:37;23.43;;;21.50;;
9254;SDS011;4663;49.120;9.730;2023-03-17T07:25:03;30.73;;;28.53;;
9254;SDS011;4663;49.120;9.730;2023-03-17T07:27:29;46.37;;;43.50;;
9254;SDS011;4663;49.120;9.730;2023-03-17T07:29:55;47.50;;;44.60;;
9254;SDS011;4663;49.120;9.730;2023-03-17T07:32:20;44.77;;;42.23;;
9254;SDS011;4663;49.120;9.730;2023-03-17T07:34:46;37.27;;;35.07;;
9254;SDS011;4663;49.120;9.730;2023-03-17T07:37:12;25.90;;;24.07;;
9254;SDS011;4663;49.120;9.730;2023-03-17T07:39:38;19.00;;;17.57;;
9254;SDS011;4663;49.120;9.730;2023-03-17T07:42:03;17.93;;;16.70;;
9254;SDS011;4663;49.120;9.730;2023-03-17T07:44:29;18.53;;;17.17;;
9254;SDS011;4663;49.120;9.730;2023-03-17T07:46:55;18.47;;;17.20;;
9254;SDS011;4663;49.120;9.730;2023-03-17T07:49:20;20.23;;;18.23;;
9254;SDS011;4663;49.120;9.730;2023-03-17T07:51:46;23.40;;;21.87;;
9254;SDS011;4663;49.120;9.730;2023-03-17T07:54:12;28.97;;;27.17;;
9254;SDS011;4663;49.120;9.730;2023-03-17T07:56:38;31.37;;;29.43;;
9254;SDS011;4663;49.120;9.730;2023-03-17T07:59:04;36.10;;;33.83;;
9254;SDS011;4663;49.120;9.730;2023-03-17T08:01:32;38.57;;;36.37;;
9254;SDS011;4663;49.120;9.730;2023-03-17T08:03:59;41.70;;;39.47;;
9254;SDS011;4663;49.120;9.730;2023-03-17T08:06:25;42.67;;;40.07;;
9254;SDS011;4663;49.120;9.730;2023-03-17T08:08:51;42.27;;;39.87;;
9254;SDS011;4663;49.120;9.730;2023-03-17T08:11:17;46.10;;;43.60;;
9254;SDS011;4663;49.120;9.730;2023-03-17T08:13:43;39.50;;;37.37;;
9254;SDS011;4663;49.120;9.730;2023-03-17T08:16:09;39.80;;;37.60;;
9254;SDS011;4663;49.120;9.730;2023-03-17T08:18:34;39.07;;;36.83;;
9254;SDS011;4663;49.120;9.730;2023-03-17T08:21:00;35.53;;;33.50;;
9254;SDS011;4663;49.120;9.730;2023-03-17T08:23:26;35.67;;;33.53;;
9254;SDS011;4663;49.120;9.730;2023-03-17T08:25:55;33.30;;;31.20;;
9254;SDS011;4663;49.120;9.730;2023-03-17T08:28:24;34.53;;;32.67;;
9254;SDS011;4663;49.120;9.730;2023-03-17T08:30:51;32.10;;;30.27;;
9254;SDS011;4663;49.120;9.730;2023-03-17T08:33:16;29.10;;;27.23;;
9254;SDS011;4663;49.120;9.730;2023-03-17T08:35:42;22.73;;;21.27;;
9254;SDS011;4663;49.120;9.730;2023-03-17T08:38:07;18.83;;;17.53;;
9254;SDS011;4663;49.120;9.730;2023-03-17T08:40:34;18.20;;;16.77;;
9254;SDS011;4663;49.120;9.730;2023-03-17T08:43:00;18.73;;;17.53;;
9254;SDS011;4663;49.120;9.730;2023-03-17T08:45:26;24.03;;;22.63;;
9254;SDS011;4663;49.120;9.730;2023-03-17T08:47:51;35.03;;;33.13;;
9254;SDS011;4663;49.120;9.730;2023-03-17T08:50:18;34.80;;;32.87;;
9254;SDS011;4663;49.120;9.730;2023-03-17T08:52:46;31.23;;;29.47;;
9254;SDS011;4663;49.120;9.730;2023-03-17T08:55:13;25.20;;;23.67;;
9254;SDS011;4663;49.120;9.730;2023-03-17T08:57:39;19.10;;;17.88;;
9254;SDS011;4663;49.120;9.730;2023-03-17T09:00:05;17.00;;;15.90;;
9254;SDS011;4663;49.120;9.730;2023-03-17T09:02:35;16.50;;;15.30;;
9254;SDS011;4663;49.120;9.730;2023-03-17T09:05:05;16.17;;;15.18;;
9254;SDS011;4663;49.120;9.730;2023-03-17T09:07:31;17.17;;;16.17;;
9254;SDS011;4663;49.120;9.730;2023-03-17T09:09:57;17.42;;;16.17;;
9254;SDS011;4663;49.120;9.730;2023-03-17T09:12:23;15.70;;;14.80;;
9254;SDS011;4663;49.120;9.730;2023-03-17T09:14:49;15.45;;;14.55;;
9254;SDS011;4663;49.120;9.730;2023-03-17T09:17:15;22.65;;;21.35;;
9254;SDS011;4663;49.120;9.730;2023-03-17T09:19:40;34.72;;;32.90;;
9254;SDS011;4663;49.120;9.730;2023-03-17T09:22:06;27.83;;;26.30;;
9254;SDS011;4663;49.120;9.730;2023-03-17T09:24:32;18.52;;;17.35;;
9254;SDS011;4663;49.120;9.730;2023-03-17T09:26:57;25.58;;;24.17;;
9254;SDS011;4663;49.120;9.730;2023-03-17T09:29:25;39.70;;;37.72;;
9254;SDS011;4663;49.120;9.730;2023-03-17T09:31:51;38.05;;;35.97;;
9254;SDS011;4663;49.120;9.730;2023-03-17T09:34:18;31.83;;;30.17;;
9254;SDS011;4663;49.120;9.730;2023-03-17T09:36:43;25.30;;;23.88;;
9254;SDS011;4663;49.120;9.730;2023-03-17T09:39:08;19.50;;;18.40;;
9254;SDS011;4663;49.120;9.730;2023-03-17T09:50:14;37.13;;;34.97;;
9254;SDS011;4663;49.120;9.730;2023-03-17T09:52:43;32.53;;;30.90;;
9254;SDS011;4663;49.120;9.730;2023-03-17T09:55:11;34.38;;;32.63;;
9254;SDS011;4663;49.120;9.730;2023-03-17T09:58:01;26.15;;;24.77;;
9254;SDS011;4663;49.120;9.730;2023-03-17T10:00:28;26.95;;;25.45;;
9254;SDS011;4663;49.120;9.730;2023-03-17T10:02:55;52.20;;;49.55;;
9254;SDS011;4663;49.120;9.730;2023-03-17T10:16:13;35.42;;;33.58;;
9254;SDS011;4663;49.120;9.730;2023-03-17T10:21:40;40.03;;;38.03;;
9254;SDS011;4663;49.120;9.730;2023-03-17T10:24:13;46.45;;;43.95;;
9254;SDS011;4663;49.120;9.730;2023-03-17T10:26:43;44.67;;;42.53;;
9254;SDS011;4663;49.120;9.730;2023-03-17T10:29:13;45.50;;;43.13;;
9254;SDS011;4663;49.120;9.730;2023-03-17T10:31:41;39.28;;;37.13;;
9254;SDS011;4663;49.120;9.730;2023-03-17T10:34:11;36.83;;;35.00;;
9254;SDS011;4663;49.120;9.730;2023-03-17T10:36:42;26.85;;;25.15;;
9254;SDS011;4663;49.120;9.730;2023-03-17T10:39:15;24.00;;;22.80;;
9254;SDS011;4663;49.120;9.730;2023-03-17T10:42:07;27.48;;;25.73;;
9254;SDS011;4663;49.120;9.730;2023-03-17T10:47:36;24.88;;;23.67;;
9254;SDS011;4663;49.120;9.730;2023-03-17T10:52:39;28.65;;;27.17;;
9254;SDS011;4663;49.120;9.730;2023-03-17T10:55:06;22.70;;;21.50;;
9254;SDS011;4663;49.120;9.730;2023-03-17T10:57:37;19.75;;;18.70;;
9254;SDS011;4663;49.120;9.730;2023-03-17T11:00:15;18.88;;;17.80;;
9254;SDS011;4663;49.120;9.730;2023-03-17T11:03:17;20.95;;;19.67;;
9254;SDS011;4663;49.120;9.730;2023-03-17T11:05:40;18.23;;;17.23;;
9254;SDS011;4663;49.120;9.730;2023-03-17T11:08:19;17.83;;;16.88;;
9254;SDS011;4663;49.120;9.730;2023-03-17T11:10:45;18.58;;;17.40;;
9254;SDS011;4663;49.120;9.730;2023-03-17T11:13:15;17.23;;;16.33;;
9254;SDS011;4663;49.120;9.730;2023-03-17T11:16:23;17.05;;;16.08;;
9254;SDS011;4663;49.120;9.730;2023-03-17T11:18:49;16.52;;;15.70;;
9254;SDS011;4663;49.120;9.730;2023-03-17T11:21:20;20.67;;;19.58;;
9254;SDS011;4663;49.120;9.730;2023-03-17T11:45:22;25.27;;;24.02;;
9254;SDS011;4663;49.120;9.730;2023-03-17T11:53:09;25.25;;;23.95;;
9254;SDS011;4663;49.120;9.730;2023-03-17T11:55:40;26.38;;;24.98;;
9254;SDS011;4663;49.120;9.730;2023-03-17T11:58:42;25.25;;;24.08;;
9254;SDS011;4663;49.120;9.730;2023-03-17T12:01:09;23.60;;;22.35;;
9254;SDS011;4663;49.120;9.730;2023-03-17T12:03:41;21.65;;;20.45;;
9254;SDS011;4663;49.120;9.730;2023-03-17T12:06:16;24.00;;;22.88;;
9254;SDS011;4663;49.120;9.730;2023-03-17T12:09:15;23.58;;;22.33;;
9254;SDS011;4663;49.120;9.730;2023-03-17T12:11:48;24.38;;;22.92;;
9254;SDS011;4663;49.120;9.730;2023-03-17T12:27:43;22.48;;;21.38;;
9254;SDS011;4663;49.120;9.730;2023-03-17T12:30:27;22.05;;;21.05;;
9254;SDS011;4663;49.120;9.730;2023-03-17T12:33:05;21.77;;;20.73;;
9254;SDS011;4663;49.120;9.730;2023-03-17T12:35:41;21.48;;;20.25;;
9254;SDS011;4663;49.120;9.730;2023-03-17T12:38:09;20.23;;;19.30;;
9254;SDS011;4663;49.120;9.730;2023-03-17T12:40:49;19.85;;;18.90;;
9254;SDS011;4663;49.120;9.730;2023-03-17T12:43:45;20.38;;;19.27;;
9254;SDS011;4663;49.120;9.730;2023-03-17T12:54:31;21.42;;;20.35;;
9254;SDS011;4663;49.120;9.730;2023-03-17T12:57:00;19.70;;;18.70;;
9254;SDS011;4663;49.120;9.730;2023-03-17T12:59:29;18.35;;;17.45;;
9254;SDS011;4663;49.120;9.730;2023-03-17T13:02:15;17.00;;;16.20;;
9254;SDS011;4663;49.120;9.730;2023-03-17T13:04:48;16.77;;;15.98;;
9254;SDS011;4663;49.120;9.730;2023-03-17T13:07:22;16.90;;;16.08;;
9254;SDS011;4663;49.120;9.730;2023-03-17T13:17:47;19.17;;;18.10;;
9254;SDS011;4663;49.120;9.730;2023-03-17T13:20:15;20.23;;;19.13;;
9254;SDS011;4663;49.120;9.730;2023-03-17T13:23:16;20.70;;;19.70;;
9254;SDS011;4663;49.120;9.730;2023-03-17T13:33:26;19.42;;;18.50;;
9254;SDS011;4663;49.120;9.730;2023-03-17T13:41:45;15.52;;;14.70;;
9254;SDS011;4663;49.120;9.730;2023-03-17T13:49:56;15.40;;;14.68;;
9254;SDS011;4663;49.120;9.730;2023-03-17T13:52:30;15.50;;;14.80;;
9254;SDS011;4663;49.120;9.730;2023-03-17T13:55:00;15.75;;;14.98;;
9254;SDS011;4663;49.120;9.730;2023-03-17T14:00:37;16.52;;;15.77;;
9254;SDS011;4663;49.120;9.730;2023-03-17T14:05:42;16.10;;;15.10;;
9254;SDS011;4663;49.120;9.730;2023-03-17T14:08:14;15.57;;;14.82;;
9254;SDS011;4663;49.120;9.730;2023-03-17T14:10:40;16.65;;;15.85;;
9254;SDS011;4663;49.120;9.730;2023-03-17T14:16:06;15.82;;;15.00;;
9254;SDS011;4663;49.120;9.730;2023-03-17T14:18:50;14.38;;;13.65;;
9254;SDS011;4663;49.120;9.730;2023-03-17T14:23:53;17.25;;;16.45;;
9254;SDS011;4663;49.120;9.730;2023-03-17T14:26:21;17.13;;;16.30;;
9254;SDS011;4663;49.120;9.730;2023-03-17T14:28:51;17.08;;;16.20;;
9254;SDS011;4663;49.120;9.730;2023-03-17T14:31:21;17.15;;;16.38;;
9254;SDS011;4663;49.120;9.730;2023-03-17T14:33:50;20.98;;;19.98;;
9254;SDS011;4663;49.120;9.730;2023-03-17T14:36:17;18.38;;;17.35;;
9254;SDS011;4663;49.120;9.730;2023-03-17T14:38:53;18.23;;;17.27;;
9254;SDS011;4663;49.120;9.730;2023-03-17T14:41:20;15.75;;;14.85;;
9254;SDS011;4663;49.120;9.730;2023-03-17T14:43:51;13.88;;;12.95;;
9254;SDS011;4663;49.120;9.730;2023-03-17T14:46:22;15.15;;;14.35;;
9254;SDS011;4663;49.120;9.730;2023-03-17T14:48:56;15.95;;;15.15;;
9254;SDS011;4663;49.120;9.730;2023-03-17T14:51:36;17.17;;;16.30;;
9254;SDS011;4663;49.120;9.730;2023-03-17T14:54:13;17.05;;;16.20;;
9254;SDS011;4663;49.120;9.730;2023-03-17T14:56:52;16.73;;;15.70;;
9254;SDS011;4663;49.120;9.730;2023-03-17T14:59:31;17.58;;;16.50;;
9254;SDS011;4663;49.120;9.730;2023-03-17T15:02:20;17.05;;;16.25;;
9254;SDS011;4663;49.120;9.730;2023-03-17T15:04:52;16.33;;;15.43;;
9254;SDS011;4663;49.120;9.730;2023-03-17T15:07:35;16.75;;;15.75;;
9254;SDS011;4663;49.120;9.730;2023-03-17T15:10:04;18.40;;;17.50;;
9254;SDS011;4663;49.120;9.730;2023-03-17T15:12:31;17.42;;;16.60;;
9254;SDS011;4663;49.120;9.730;2023-03-17T15:15:02;16.63;;;15.82;;
9254;SDS011;4663;49.120;9.730;2023-03-17T15:17:31;17.33;;;16.40;;
9254;SDS011;4663;49.120;9.730;2023-03-17T15:20:00;16.55;;;15.48;;
9254;SDS011;4663;49.120;9.730;2023-03-17T15:27:31;23.38;;;22.02;;
9254;SDS011;4663;49.120;9.730;2023-03-17T15:29:56;20.30;;;19.02;;
9254;SDS011;4663;49.120;9.730;2023-03-17T15:32:23;21.65;;;20.45;;
9254;SDS011;4663;49.120;9.730;2023-03-17T15:34:51;24.80;;;23.25;;
9254;SDS011;4663;49.120;9.730;2023-03-17T15:37:25;23.25;;;22.02;;
9254;SDS011;4663;49.120;9.730;2023-03-17T15:39:52;24.08;;;22.70;;
9254;SDS011;4663;49.120;9.730;2023-03-17T15:42:20;25.80;;;24.50;;
9254;SDS011;4663;49.120;9.730;2023-03-17T15:44:47;27.02;;;25.55;;
9254;SDS011;4663;49.120;9.730;2023-03-17T15:47:15;30.52;;;28.85;;
9254;SDS011;4663;49.120;9.730;2023-03-17T15:49:44;30.05;;;28.55;;
9254;SDS011;4663;49.120;9.730;2023-03-17T15:52:20;28.75;;;27.35;;
9254;SDS011;4663;49.120;9.730;2023-03-17T15:54:50;29.77;;;28.30;;
9254;SDS011;4663;49.120;9.730;2023-03-17T15:57:17;30.95;;;29.40;;
9254;SDS011;4663;49.120;9.730;2023-03-17T15:59:43;32.80;;;31.13;;
9254;SDS011;4663;49.120;9.730;2023-03-17T16:04:55;30.90;;;29.17;;
9254;SDS011;4663;49.120;9.730;2023-03-17T16:07:21;34.67;;;32.65;;
9254;SDS011;4663;49.120;9.730;2023-03-17T16:09:47;30.88;;;29.38;;
9254;SDS011;4663;49.120;9.730;2023-03-17T16:12:13;29.50;;;28.08;;
9254;SDS011;4663;49.120;9.730;2023-03-17T16:14:39;30.52;;;28.95;;
9254;SDS011;4663;49.120;9.730;2023-03-17T16:17:08;27.75;;;26.10;;
9254;SDS011;4663;49.120;9.730;2023-03-17T16:19:42;27.55;;;25.95;;
9254;SDS011;4663;49.120;9.730;2023-03-17T16:22:33;28.88;;;27.13;;
9254;SDS011;4663;49.120;9.730;2023-03-17T16:25:02;28.73;;;27.13;;
9254;SDS011;4663;49.120;9.730;2023-03-17T16:27:28;33.22;;;31.42;;
9254;SDS011;4663;49.120;9.730;2023-03-17T16:29:53;29.60;;;27.95;;
9254;SDS011;4663;49.120;9.730;2023-03-17T16:32:19;29.48;;;27.88;;
9254;SDS011;4663;49.120;9.730;2023-03-17T16:34:44;23.58;;;22.35;;
9254;SDS011;4663;49.120;9.730;2023-03-17T16:37:12;20.23;;;19.13;;
9254;SDS011;4663;49.120;9.730;2023-03-17T16:39:39;28.73;;;27.38;;
9254;SDS011;4663;49.120;9.730;2023-03-17T16:42:08;31.95;;;30.35;;
9254;SDS011;4663;49.120;9.730;2023-03-17T16:44:48;40.13;;;37.95;;
9254;SDS011;4663;49.120;9.730;2023-03-17T16:47:14;40.70;;;38.50;;
9254;SDS011;4663;49.120;9.730;2023-03-17T16:49:40;44.58;;;42.30;;
9254;SDS011;4663;49.120;9.730;2023-03-17T16:52:05;44.05;;;41.88;;
9254;SDS011;4663;49.120;9.730;2023-03-17T16:54:30;42.03;;;39.80;;
9254;SDS011;4663;49.120;9.730;2023-03-17T16:56:57;52.17;;;49.42;;
9254;SDS011;4663;49.120;9.730;2023-03-17T16:59:24;49.88;;;47.53;;
9254;SDS011;4663;49.120;9.730;2023-03-17T17:01:55;33.40;;;31.83;;
9254;SDS011;4663;49.120;9.730;2023-03-17T17:04:20;23.42;;;22.20;;
9254;SDS011;4663;49.120;9.730;2023-03-17T17:06:47;16.27;;;15.48;;
9254;SDS011;4663;49.120;9.730;2023-03-17T17:09:13;23.45;;;22.20;;
9254;SDS011;4663;49.120;9.730;2023-03-17T17:11:39;28.25;;;26.77;;